Home > Products > Valid Products > MTR

000
SAUS44 KMEG 300454
MTRTUP
METAR KTUP 300453Z AUTO 18004KT 10SM CLR 22/20 A3007 RMK AO2 SLP177
T02220200





000
SAUS44 KMEG 300354
MTRTUP
METAR KTUP 300353Z AUTO 16007KT 10SM CLR 23/21 A3007 RMK AO2 SLP178
T02330206





000
SAUS44 KMEG 300354
MTRTUP
METAR KTUP 300353Z AUTO 16007KT 10SM CLR 23/21 A3007 RMK AO2 SLP178
T02330206





000
SAUS44 KMEG 300254
MTRTUP
METAR KTUP 300253Z AUTO 15007KT 10SM CLR 24/21 A3007 RMK AO2 SLP178
T02440206 53020





000
SAUS44 KMEG 300154
MTRTUP
METAR KTUP 300153Z AUTO 15011KT 10SM CLR 25/21 A3006 RMK AO2 SLP173
T02500211





000
SAUS44 KMEG 300054
MTRTUP
METAR KTUP 300053Z AUTO 14012KT 10SM CLR 27/22 A3002 RMK AO2 SLP162
T02720222





000
SAUS44 KMEG 292354
MTRTUP
METAR KTUP 292353Z AUTO 16004KT 10SM CLR 29/21 A3001 RMK AO2 LTG
DSNT NE SLP158 T02940206 10322 20294 58002





000
SAUS44 KMEG 292354
MTRTUP
METAR KTUP 292353Z AUTO 16004KT 10SM CLR 29/21 A3001 RMK AO2 LTG
DSNT NE SLP158 T02940206 10322 20294 58002





000
SAUS44 KMEG 292254
MTRTUP
METAR KTUP 292253Z AUTO 17006KT 10SM SCT044 SCT055 30/21 A3002 RMK
AO2 SLP161 T03000206





000
SAUS44 KMEG 292154
MTRTUP
METAR KTUP 292153Z AUTO 09006KT 10SM BKN040 OVC050 31/21 A3001 RMK
AO2 SLP158 T03110211





000
SAUS44 KMEG 292054
MTRTUP
METAR KTUP 292053Z AUTO 00000KT 10SM FEW040 SCT060 BKN075 31/20
A3002 RMK AO2 SLP160 T03110200 58015





000
SAUS44 KMEG 292054
MTRTUP
METAR KTUP 292053Z AUTO 00000KT 10SM FEW040 SCT060 BKN075 31/20
A3002 RMK AO2 SLP160 T03110200 58015





000
SAUS44 KMEG 291954
MTRTUP
METAR KTUP 291953Z AUTO 19004KT 10SM BKN034 32/22 A3004 RMK AO2
SLP169 T03220222





000
SAUS44 KMEG 291954
MTRTUP
METAR KTUP 291953Z AUTO 19004KT 10SM BKN034 32/22 A3004 RMK AO2
SLP169 T03220222





000
SAUS44 KMEG 291907
MTRTUP
SPECI KTUP 291906Z 20008KT 10SM BKN030 BKN038 31/22 A3006 RMK AO2
T03060217





000
SAUS44 KMEG 291854
MTRTUP
METAR KTUP 291853Z VRB05KT 10SM BKN028 BKN034 31/22 A3006 RMK AO2
SLP175 T03060222





000
SAUS44 KMEG 291852
MTRTUP
SPECI KTUP 291851Z 20006KT 10SM BKN028 BKN034 30/22 A3006 RMK AO2





000
SAUS44 KMEG 291754
MTRTUP
METAR KTUP 291753Z 18005KT 10SM CLR 29/22 A3009 RMK AO2 SLP184
T02940222 10300 20228 58008





000
SAUS44 KMEG 291654
MTRTUP
METAR KTUP 291653Z VRB04KT 10SM FEW020 FEW075 SCT090 28/22 A3011 RMK
AO2 SLP191 T02830222





000
SAUS44 KMEG 291632
MTRTUP
SPECI KTUP 291631Z 18005KT 10SM SCT018 BKN075 28/22 A3012 RMK AO2
T02780217





000
SAUS44 KMEG 291632
MTRTUP
SPECI KTUP 291631Z 18005KT 10SM SCT018 BKN075 28/22 A3012 RMK AO2
T02780217





000
SAUS44 KMEG 291554
MTRTUP
METAR KTUP 291553Z 18004KT 10SM BKN017 BKN080 27/22 A3012 RMK AO2
SLP195 T02670217





000
SAUS44 KMEG 291454
MTRTUP
METAR KTUP 291453Z 22006KT 10SM BKN012 26/22 A3011 RMK AO2 SLP193
T02560217 53010





000
SAUS44 KMEG 291454
MTRTUP
METAR KTUP 291453Z 22006KT 10SM BKN012 26/22 A3011 RMK AO2 SLP193
T02560217 53010





000
SAUS44 KMEG 291407
MTRTUP
SPECI KTUP 291406Z 20007KT 10SM BKN011 24/21 A3011 RMK AO2 T02390211





000
SAUS44 KMEG 291407
MTRTUP
SPECI KTUP 291406Z 20007KT 10SM BKN011 24/21 A3011 RMK AO2 T02390211





000
SAUS44 KMEG 291354
MTRTUP
METAR KTUP 291353Z 19007KT 10SM SCT011 24/21 A3010 RMK AO2 SLP190
T02390206





000
SAUS44 KMEG 291354
MTRTUP
METAR KTUP 291353Z 19007KT 10SM SCT011 24/21 A3010 RMK AO2 SLP190
T02390206





000
SAUS44 KMEG 291254
MTRTUP
METAR KTUP 291253Z 17005KT 10SM FEW015 23/21 A3009 RMK AO2 SLP185
T02280206





000
SAUS44 KMEG 291254
MTRTUP
METAR KTUP 291253Z 17005KT 10SM FEW015 23/21 A3009 RMK AO2 SLP185
T02280206





000
SAUS44 KMEG 291208
MTRTUP
SPECI KTUP 291207Z 00000KT 10SM BKN015 23/21 A3009 RMK AO2 T02280206





000
SAUS44 KMEG 291208
MTRTUP
SPECI KTUP 291207Z 00000KT 10SM BKN015 23/21 A3009 RMK AO2 T02280206





000
SAUS44 KMEG 291154
MTRTUP
METAR KTUP 291153Z 14003KT 10SM FEW014 22/20 A3008 RMK AO2 SLP182
T02220200 10239 20217 53012





000
SAUS44 KMEG 291154
MTRTUP
METAR KTUP 291153Z 14003KT 10SM FEW014 22/20 A3008 RMK AO2 SLP182
T02220200 10239 20217 53012





000
SAUS44 KMEG 291054
MTRTUP
METAR KTUP 291053Z 17003KT 10SM CLR 22/20 A3006 RMK AO2 SLP175
T02220200





000
SAUS44 KMEG 290954
MTRTUP
METAR KTUP 290953Z AUTO 17004KT 10SM CLR 22/20 A3005 RMK AO2 SLP171
T02220200





000
SAUS44 KMEG 290854
MTRTUP
METAR KTUP 290853Z AUTO 17006KT 10SM CLR 23/20 A3005 RMK AO2 SLP170
T02280200 56002





000
SAUS44 KMEG 290854
MTRTUP
METAR KTUP 290853Z AUTO 17006KT 10SM CLR 23/20 A3005 RMK AO2 SLP170
T02280200 56002





000
SAUS44 KMEG 290754
MTRTUP
METAR KTUP 290753Z AUTO 16005KT 10SM CLR 23/20 A3005 RMK AO2 SLP170
T02330200





000
SAUS44 KMEG 290654
MTRTUP
METAR KTUP 290653Z AUTO 17005KT 10SM CLR 23/20 A3005 RMK AO2 SLP171
T02330200





000
SAUS44 KMEG 290654
MTRTUP
METAR KTUP 290653Z AUTO 17005KT 10SM CLR 23/20 A3005 RMK AO2 SLP171
T02330200





000
SAUS44 KMEG 290554
MTRTUP
METAR KTUP 290553Z AUTO 16007KT 10SM FEW070 24/20 A3005 RMK AO2
SLP172 T02390200 10294 20222 403170167 58003





000
SAUS44 KMEG 290554
MTRTUP
METAR KTUP 290553Z AUTO 16007KT 10SM FEW070 24/20 A3005 RMK AO2
SLP172 T02390200 10294 20222 403170167 58003





000
SAUS44 KMEG 290454
MTRTUP
METAR KTUP 290453Z AUTO 00000KT 10SM CLR 22/20 A3006 RMK AO2 SLP174
T02220200





000
SAUS44 KMEG 290454
MTRTUP
METAR KTUP 290453Z AUTO 00000KT 10SM CLR 22/20 A3006 RMK AO2 SLP174
T02220200





000
SAUS44 KMEG 290354
MTRTUP
METAR KTUP 290353Z AUTO 05003KT 10SM CLR 23/20 A3006 RMK AO2 SLP174
T02280200





000
SAUS44 KMEG 290254
MTRTUP
METAR KTUP 290253Z AUTO 07003KT 10SM CLR 23/20 A3006 RMK AO2 SLP176
T02280200 53019





000
SAUS44 KMEG 290254
MTRTUP
METAR KTUP 290253Z AUTO 07003KT 10SM CLR 23/20 A3006 RMK AO2 SLP176
T02280200 53019





000
SAUS44 KMEG 290154
MTRTUP
METAR KTUP 290153Z AUTO 06003KT 10SM CLR 24/19 A3004 RMK AO2 SLP168
T02390194





000
SAUS44 KMEG 290054
MTRTUP
METAR KTUP 290053Z AUTO 00000KT 8SM CLR 26/19 A3001 RMK AO2 SLP159
T02610194





000
SAUS44 KMEG 290054
MTRTUP
METAR KTUP 290053Z AUTO 00000KT 8SM CLR 26/19 A3001 RMK AO2 SLP159
T02610194





000
SAUS44 KMEG 282354
MTRTUP
METAR KTUP 282353Z AUTO 17003KT 10SM CLR 29/18 A3000 RMK AO2 SLP157
T02940178 10317 20294 55000





000
SAUS44 KMEG 282354
MTRTUP
METAR KTUP 282353Z AUTO 17003KT 10SM CLR 29/18 A3000 RMK AO2 SLP157
T02940178 10317 20294 55000





000
SAUS44 KMEG 282254
MTRTUP
METAR KTUP 282253Z AUTO 15004KT 10SM CLR 31/17 A3000 RMK AO2 SLP155
T03060172





000
SAUS44 KMEG 282154
MTRTUP
METAR KTUP 282153Z AUTO 17003KT 10SM CLR 31/17 A3000 RMK AO2 SLP153
T03110172





000
SAUS44 KMEG 282054
MTRTUP
METAR KTUP 282053Z AUTO 20005KT 10SM FEW055 31/18 A3001 RMK AO2
SLP156 T03060178 56020





000
SAUS44 KMEG 282054
MTRTUP
METAR KTUP 282053Z AUTO 20005KT 10SM FEW055 31/18 A3001 RMK AO2
SLP156 T03060178 56020





000
SAUS44 KMEG 281954
MTRTUP
METAR KTUP 281953Z AUTO 19007KT 10SM FEW048 32/18 A3002 RMK AO2
SLP161 T03170183





000
SAUS44 KMEG 281854
MTRTUP
METAR KTUP 281853Z 25004KT 10SM FEW045 31/19 A3004 RMK AO2 SLP169
T03060189





000
SAUS44 KMEG 281854
MTRTUP
METAR KTUP 281853Z 25004KT 10SM FEW045 31/19 A3004 RMK AO2 SLP169
T03060189





000
SAUS44 KMEG 281754
MTRTUP
METAR KTUP 281753Z 21006KT 10SM SCT034 SCT070 30/19 A3006 RMK AO2
SLP177 T03000194 10300 20167 58008





000
SAUS44 KMEG 281654
MTRTUP
METAR KTUP 281653Z 00000KT 10SM CLR 29/20 A3008 RMK AO2 SLP183
T02890200





000
SAUS44 KMEG 281554
MTRTUP
METAR KTUP 281553Z 19005KT 10SM CLR 28/19 A3009 RMK AO2 SLP184
T02780194





000
SAUS44 KMEG 281454
MTRTUP
METAR KTUP 281453Z 12004KT 10SM BKN060 25/18 A3009 RMK AO2 SLP185
T02500183 51010





000
SAUS44 KMEG 281354
MTRTUP
METAR KTUP 281353Z 07003KT 10SM CLR 22/18 A3008 RMK AO2 SLP183
T02170178





000
SAUS44 KMEG 281254
MTRTUP
METAR KTUP 281253Z 03006KT 10SM BKN060 18/16 A3008 RMK AO2 SLP182
T01830156





000
SAUS44 KMEG 281254
MTRTUP
METAR KTUP 281253Z 03006KT 10SM BKN060 18/16 A3008 RMK AO2 SLP182
T01830156





000
SAUS44 KMEG 281154
MTRTUP
METAR KTUP 281153Z 04005KT 10SM CLR 17/15 A3006 RMK AO2 SLP175
T01670150 10178 20167 53010





000
SAUS44 KMEG 281154
MTRTUP
METAR KTUP 281153Z 04005KT 10SM CLR 17/15 A3006 RMK AO2 SLP175
T01670150 10178 20167 53010





000
SAUS44 KMEG 281054
MTRTUP
METAR KTUP 281053Z 04003KT 10SM FEW060 17/15 A3004 RMK AO2 SLP168
T01720150





000
SAUS44 KMEG 280954
MTRTUP
METAR KTUP 280953Z AUTO 04006KT 10SM BKN065 17/15 A3004 RMK AO2
SLP168 T01720150





000
SAUS44 KMEG 280854
MTRTUP
METAR KTUP 280853Z AUTO 01006KT 10SM CLR 18/15 A3003 RMK AO2 SLP164
T01780150 55005





000
SAUS44 KMEG 280854
MTRTUP
METAR KTUP 280853Z AUTO 01006KT 10SM CLR 18/15 A3003 RMK AO2 SLP164
T01780150 55005





000
SAUS44 KMEG 280754
MTRTUP
METAR KTUP 280753Z AUTO 03006KT 10SM CLR 17/15 A3002 RMK AO2 SLP161
T01670150





000
SAUS44 KMEG 280754
MTRTUP
METAR KTUP 280753Z AUTO 03006KT 10SM CLR 17/15 A3002 RMK AO2 SLP161
T01670150





000
SAUS44 KMEG 280654
MTRTUP
METAR KTUP 280653Z AUTO 02003KT 10SM CLR 18/15 A3003 RMK AO2 SLP165
T01780150





000
SAUS44 KMEG 280654
MTRTUP
METAR KTUP 280653Z AUTO 02003KT 10SM CLR 18/15 A3003 RMK AO2 SLP165
T01780150





000
SAUS44 KMEG 280554
MTRTUP
METAR KTUP 280553Z AUTO 04003KT 10SM CLR 18/15 A3004 RMK AO2 SLP170
T01780150 10244 20178 402780144 56002





000
SAUS44 KMEG 280554
MTRTUP
METAR KTUP 280553Z AUTO 04003KT 10SM CLR 18/15 A3004 RMK AO2 SLP170
T01780150 10244 20178 402780144 56002





000
SAUS44 KMEG 280454
MTRTUP
METAR KTUP 280453Z AUTO 03006KT 10SM CLR 18/16 A3004 RMK AO2 SLP170
T01780156





000
SAUS44 KMEG 280454
MTRTUP
METAR KTUP 280453Z AUTO 03006KT 10SM CLR 18/16 A3004 RMK AO2 SLP170
T01780156





000
SAUS44 KMEG 280354
MTRTUP
METAR KTUP 280353Z AUTO 04004KT 10SM CLR 18/16 A3004 RMK AO2 SLP170
T01830156





000
SAUS44 KMEG 280257
MTRTUP
METAR KTUP 280253Z 04005KT 10SM CLR 19/16 A3005 RMK AO2 SLP171
T01890156 53004





000
SAUS44 KMEG 280154
MTRTUP
METAR KTUP 280153Z 04004KT 10SM CLR 21/16 A3004 RMK AO2 SLP167
T02110156





000
SAUS44 KMEG 280054
MTRTUP
METAR KTUP 280053Z 03004KT 10SM CLR 22/16 A3003 RMK AO2 SLP165
T02170156





000
SAUS44 KMEG 280054
MTRTUP
METAR KTUP 280053Z 03004KT 10SM CLR 22/16 A3003 RMK AO2 SLP165
T02170156





000
SAUS44 KMEG 272354
MTRTUP
METAR KTUP 272353Z AUTO 02008KT 10SM CLR 24/14 A3003 RMK AO2 SLP168
T02440144 10278 20244 58001





000
SAUS44 KMEG 272354
MTRTUP
METAR KTUP 272353Z AUTO 02008KT 10SM CLR 24/14 A3003 RMK AO2 SLP168
T02440144 10278 20244 58001





000
SAUS44 KMEG 272254
MTRTUP
METAR KTUP 272253Z AUTO 04008KT 10SM CLR 27/13 A3004 RMK AO2 SLP169
T02720128





000
SAUS44 KMEG 272154
MTRTUP
METAR KTUP 272153Z AUTO 03008KT 10SM CLR 28/13 A3004 RMK AO2 SLP169
T02780133





000
SAUS44 KMEG 272054
MTRTUP
METAR KTUP 272053Z AUTO 04008KT 10SM FEW055 28/13 A3004 RMK AO2
SLP168 T02780133 58008





000
SAUS44 KMEG 272054
MTRTUP
METAR KTUP 272053Z AUTO 04008KT 10SM FEW055 28/13 A3004 RMK AO2
SLP168 T02780133 58008





000
SAUS44 KMEG 271954
MTRTUP
METAR KTUP 271953Z AUTO 03010KT 10SM FEW055 28/13 A3007 RMK AO2
SLP177 T02780128





000
SAUS44 KMEG 271854
MTRTUP
METAR KTUP 271853Z 03008KT 10SM CLR 27/13 A3006 RMK AO2 SLP175
T02720133





000
SAUS44 KMEG 271854
MTRTUP
METAR KTUP 271853Z 03008KT 10SM CLR 27/13 A3006 RMK AO2 SLP175
T02720133





000
SAUS44 KMEG 271754
MTRTUP
METAR KTUP 271753Z 06009KT 10SM FEW050 27/13 A3006 RMK AO2 SLP177
T02670133 10267 20150 58011





000
SAUS44 KMEG 271754
MTRTUP
METAR KTUP 271753Z 06009KT 10SM FEW050 27/13 A3006 RMK AO2 SLP177
T02670133 10267 20150 58011





000
SAUS44 KMEG 271654
MTRTUP
METAR KTUP 271653Z 05014KT 10SM SCT047 26/13 A3008 RMK AO2 SLP183
T02560128





000
SAUS44 KMEG 271554
MTRTUP
METAR KTUP 271553Z 06012G17KT 10SM CLR 26/14 A3009 RMK AO2 SLP186
T02560144





000
SAUS44 KMEG 271454
MTRTUP
METAR KTUP 271453Z 05007KT 10SM CLR 23/16 A3010 RMK AO2 SLP188
T02330161 50006





000
SAUS44 KMEG 271454
MTRTUP
METAR KTUP 271453Z 05007KT 10SM CLR 23/16 A3010 RMK AO2 SLP188
T02330161 50006





000
SAUS44 KMEG 271354
MTRTUP
METAR KTUP 271353Z 06006KT 10SM CLR 20/16 A3010 RMK AO2 SLP189
T02000156





000
SAUS44 KMEG 271254
MTRTUP
METAR KTUP 271253Z 04007KT 10SM CLR 17/15 A3009 RMK AO2 SLP186
T01720150





000
SAUS44 KMEG 271254
MTRTUP
METAR KTUP 271253Z 04007KT 10SM CLR 17/15 A3009 RMK AO2 SLP186
T01720150





000
SAUS44 KMEG 271154
MTRTUP
METAR KTUP 271153Z 03005KT 10SM CLR 15/13 A3008 RMK AO2 SLP183
T01500133 10167 20144 51008





000
SAUS44 KMEG 271154
MTRTUP
METAR KTUP 271153Z 03005KT 10SM CLR 15/13 A3008 RMK AO2 SLP183
T01500133 10167 20144 51008





000
SAUS44 KMEG 271054
MTRTUP
METAR KTUP 271053Z 03005KT 10SM CLR 15/13 A3008 RMK AO2 SLP181
T01500133





000
SAUS44 KMEG 270954
MTRTUP
METAR KTUP 270953Z AUTO 02006KT 10SM CLR 15/13 A3006 RMK AO2 SLP176
T01500133





000
SAUS44 KMEG 270854
MTRTUP
METAR KTUP 270853Z AUTO 03007KT 10SM CLR 16/14 A3005 RMK AO2 SLP173
T01560139 58001





000
SAUS44 KMEG 270754
MTRTUP
METAR KTUP 270753Z AUTO 02007KT 10SM CLR 16/14 A3006 RMK AO2 SLP174
T01560139





000
SAUS44 KMEG 270754
MTRTUP
METAR KTUP 270753Z AUTO 02007KT 10SM CLR 16/14 A3006 RMK AO2 SLP174
T01560139





000
SAUS44 KMEG 270654
MTRTUP
METAR KTUP 270653Z AUTO 02006KT 10SM CLR 16/14 A3006 RMK AO2 SLP175
T01610139





000
SAUS44 KMEG 270654
MTRTUP
METAR KTUP 270653Z AUTO 02006KT 10SM CLR 16/14 A3006 RMK AO2 SLP175
T01610139





000
SAUS44 KMEG 270554
MTRTUP
METAR KTUP 270553Z AUTO 03007KT 10SM CLR 17/14 A3006 RMK AO2 SLP174
T01670139 10244 20167 402780139 58005





000
SAUS44 KMEG 270554
MTRTUP
METAR KTUP 270553Z AUTO 03007KT 10SM CLR 17/14 A3006 RMK AO2 SLP174
T01670139 10244 20167 402780139 58005





    US Dept of Commerce
    National Oceanic and Atmospheric Administration
    National Weather Service
    1325 East West Highway
    Silver Spring, MD 20910
    Page Author: NWS Internet Services Team
Disclaimer
Information Quality
Credits
Glossary
Privacy Policy
Freedom of Information Act (FOIA)
About Us
Career Opportunities